Time;durP1;ratioP1;P1;durP2;ratioP2;P2;SDS_P1;SDS_P2;PMS_P1;PMS_P2;Temp;Humidity;BMP_temperature;BMP_pressure;BME280_temperature;BME280_humidity;BME280_pressure;Samples;Min_cycle;Max_cycle;Signal;HPM_P1;HPM_P2
2022/05/17 00:00:09;;;;;;;2.10;1.40;;;;;;;20.05;69.99;99480.50;4804962;29;20218;-77
2022/05/17 00:02:39;;;;;;;2.97;1.50;;;;;;;20.01;70.75;99477.56;4804883;29;20207;-77
2022/05/17 00:05:07;;;;;;;2.20;1.60;;;;;;;20.04;71.17;99481.59;4804777;29;20193;-78
2022/05/17 00:07:34;;;;;;;3.97;1.67;;;;;;;19.88;72.14;99480.91;4805185;29;20811;-78
2022/05/17 00:10:00;;;;;;;3.23;1.70;;;;;;;19.85;72.46;99481.50;4805161;29;20220;-77
2022/05/17 00:12:27;;;;;;;3.20;1.50;;;;;;;19.77;73.14;99485.63;4805676;29;20232;-78
2022/05/17 00:14:54;;;;;;;3.33;1.90;;;;;;;19.77;73.48;99487.53;4804960;29;20193;-78
2022/05/17 00:17:21;;;;;;;2.47;1.80;;;;;;;19.72;74.27;99488.38;4774239;29;20630;-78
2022/05/17 00:19:48;;;;;;;2.53;1.70;;;;;;;19.77;74.05;99482.09;4804983;29;20188;-78
2022/05/17 00:22:15;;;;;;;1.80;1.47;;;;;;;19.68;74.36;99483.78;4805205;29;20225;-78
2022/05/17 00:24:42;;;;;;;2.97;1.60;;;;;;;19.64;74.75;99483.53;4820935;29;20319;-78
2022/05/17 00:27:09;;;;;;;2.80;1.50;;;;;;;19.71;74.38;99491.38;4823440;29;20297;-78
2022/05/17 00:29:36;;;;;;;1.87;1.73;;;;;;;19.62;74.36;99477.56;4822689;29;20284;-77
2022/05/17 00:32:03;;;;;;;2.13;1.50;;;;;;;19.64;74.34;99485.47;4823213;29;20293;-76
2022/05/17 00:34:31;;;;;;;2.43;1.53;;;;;;;19.63;74.26;99481.13;4822579;29;20204;-82
2022/05/17 00:36:58;;;;;;;3.80;1.33;;;;;;;19.77;73.78;99477.47;4823145;29;20192;-77
2022/05/17 00:39:25;;;;;;;3.90;1.77;;;;;;;19.90;71.88;99477.91;4806660;29;20289;-78
2022/05/17 00:41:52;;;;;;;3.17;1.80;;;;;;;19.91;72.05;99464.03;4822582;29;20224;-78
2022/05/17 00:47:24;;;;;;;3.33;1.90;;;;;;;19.87;72.54;99467.63;4809399;29;20227;-77
2022/05/17 00:49:56;;;;;;;3.00;1.67;;;;;;;20.03;71.14;99469.09;4806902;29;20203;-77
2022/05/17 00:52:26;;;;;;;1.67;1.40;;;;;;;19.91;71.62;99463.22;4806860;29;20235;-79
2022/05/17 00:54:58;;;;;;;3.70;1.83;;;;;;;19.90;71.38;99464.31;4806288;29;20219;-79
2022/05/17 00:57:33;;;;;;;3.30;1.90;;;;;;;19.82;71.59;99457.59;4806869;29;20181;-78
2022/05/17 01:00:03;;;;;;;3.70;1.60;;;;;;;19.77;72.21;99466.59;4822245;29;20204;-78
2022/05/17 01:02:31;;;;;;;3.57;1.83;;;;;;;19.91;71.13;99472.19;4805912;29;20300;-78
2022/05/17 01:05:00;;;;;;;2.50;1.60;;;;;;;19.94;70.61;99458.03;4822545;29;20250;-78
2022/05/17 01:07:33;;;;;;;2.50;1.70;;;;;;;19.93;70.38;99458.31;4822170;29;20654;-78
2022/05/17 01:10:00;;;;;;;2.83;1.73;;;;;;;19.87;71.10;99454.03;4806219;29;20624;-77
2022/05/17 01:12:27;;;;;;;4.57;1.90;;;;;;;19.82;71.27;99452.16;4822279;29;20295;-77
2022/05/17 01:14:57;;;;;;;5.23;1.77;;;;;;;20.01;70.19;99460.44;4821996;29;20192;-78
2022/05/17 01:17:25;;;;;;;2.60;1.70;;;;;;;19.86;70.69;99453.22;4806637;29;20263;-77
2022/05/17 01:19:52;;;;;;;2.40;1.53;;;;;;;19.78;70.96;99454.63;4821854;29;20359;-78
2022/05/17 01:22:19;;;;;;;3.00;1.70;;;;;;;19.81;71.18;99458.69;4822207;29;20292;-77
2022/05/17 01:24:46;;;;;;;3.00;1.70;;;;;;;19.82;71.01;99459.50;4821487;29;20315;-77
2022/05/17 01:27:18;;;;;;;3.03;1.80;;;;;;;19.77;71.14;99454.91;4822276;29;20674;-77
2022/05/17 01:29:46;;;;;;;3.07;1.77;;;;;;;19.83;70.63;99452.97;4821815;29;20214;-77
2022/05/17 01:32:17;;;;;;;3.10;1.77;;;;;;;19.78;71.11;99472.84;4822135;29;20612;-77
2022/05/17 01:34:44;;;;;;;3.93;1.90;;;;;;;19.94;70.18;99455.31;4821830;29;20716;-77
2022/05/17 01:37:12;;;;;;;2.90;1.80;;;;;;;19.84;70.92;99465.44;4821858;29;20252;-78
2022/05/17 01:39:40;;;;;;;2.93;1.70;;;;;;;19.90;70.56;99453.44;4821800;29;20287;-77
2022/05/17 01:42:07;;;;;;;3.47;1.77;;;;;;;19.89;70.53;99454.53;4822133;29;20219;-78
2022/05/17 01:44:35;;;;;;;2.47;1.50;;;;;;;20.05;69.49;99462.28;4821381;29;20201;-77
2022/05/17 01:47:02;;;;;;;2.70;1.63;;;;;;;19.96;69.99;99455.84;4822122;29;20769;-77
2022/05/17 01:49:29;;;;;;;2.40;1.63;;;;;;;19.83;70.59;99463.84;4821928;29;20264;-77
2022/05/17 01:51:56;;;;;;;4.03;1.83;;;;;;;19.82;70.46;99454.06;4821783;29;20287;-77
2022/05/17 01:54:23;;;;;;;3.73;1.73;;;;;;;19.78;70.91;99451.09;4805547;29;20716;-79
2022/05/17 01:56:50;;;;;;;2.30;1.70;;;;;;;19.99;69.82;99451.72;4821563;29;20839;-77
2022/05/17 01:59:17;;;;;;;4.03;1.90;;;;;;;19.84;70.74;99452.66;4821433;29;20192;-77
2022/05/17 02:01:44;;;;;;;3.30;1.60;;;;;;;19.91;70.27;99452.34;4820942;29;20192;-77
2022/05/17 02:04:13;;;;;;;4.20;2.00;;;;;;;19.84;70.99;99446.41;4821512;29;20192;-77
2022/05/17 02:06:40;;;;;;;2.60;1.63;;;;;;;19.87;70.91;99448.59;4821880;29;20233;-78
2022/05/17 02:09:06;;;;;;;3.90;1.80;;;;;;;19.71;72.01;99440.53;4804859;29;20631;-78
2022/05/17 02:11:34;;;;;;;4.07;1.83;;;;;;;19.75;71.48;99448.94;4821470;29;20187;-78
2022/05/17 02:14:01;;;;;;;3.33;1.80;;;;;;;19.79;71.39;99458.97;4821572;29;20190;-78
2022/05/17 02:16:29;;;;;;;2.53;1.60;;;;;;;19.76;70.97;99448.66;4821840;29;20196;-78
2022/05/17 02:18:55;;;;;;;2.27;1.60;;;;;;;19.95;69.95;99454.22;4805238;29;20610;-78
2022/05/17 02:21:22;;;;;;;3.97;1.80;;;;;;;19.95;69.61;99446.06;4821254;29;20298;-78
2022/05/17 02:23:49;;;;;;;3.00;1.50;;;;;;;19.76;71.00;99450.56;4821084;29;20304;-78
2022/05/17 02:26:16;;;;;;;2.07;1.60;;;;;;;19.74;71.17;99447.31;4821469;29;20218;-78
2022/05/17 02:28:43;;;;;;;2.00;1.57;;;;;;;19.89;70.36;99447.19;4820399;29;20991;-78
2022/05/17 02:31:13;;;;;;;2.70;1.60;;;;;;;19.75;71.00;99454.38;4821380;29;20281;-78
2022/05/17 02:33:41;;;;;;;4.50;1.83;;;;;;;19.74;71.10;99450.84;4820874;29;20211;-78
2022/05/17 02:36:08;;;;;;;3.43;1.60;;;;;;;19.65;71.88;99452.53;4821233;29;20271;-77
2022/05/17 02:38:34;;;;;;;3.07;1.70;;;;;;;19.56;73.12;99464.28;4820712;29;20226;-81
2022/05/17 02:41:01;;;;;;;3.53;1.60;;;;;;;19.74;72.91;99458.19;4820991;29;20193;-78
2022/05/17 02:43:28;;;;;;;3.33;1.70;;;;;;;19.81;72.60;99458.69;4821553;29;20274;-77
2022/05/17 02:45:54;;;;;;;2.27;1.60;;;;;;;19.68;73.66;99464.78;4820770;29;20232;-77
2022/05/17 02:48:22;;;;;;;2.13;1.80;;;;;;;19.54;77.09;99461.06;4821080;29;20210;-77
2022/05/17 02:50:49;;;;;;;2.97;1.57;;;;;;;19.48;77.74;99464.91;4804285;29;20651;-77
2022/05/17 02:53:16;;;;;;;2.97;1.80;;;;;;;19.46;78.34;99467.88;4820879;29;20694;-77
2022/05/17 02:55:42;;;;;;;2.27;1.43;;;;;;;19.30;79.82;99459.00;4804537;29;20683;-78
2022/05/17 02:58:10;;;;;;;1.83;1.43;;;;;;;19.21;81.85;99462.59;4821109;29;20210;-77
2022/05/17 03:00:36;;;;;;;3.20;1.60;;;;;;;19.23;79.89;99454.97;4820237;29;20216;-77
2022/05/17 03:03:04;;;;;;;3.87;1.80;;;;;;;19.35;78.84;99453.56;4803699;29;20547;-76
2022/05/17 03:05:30;;;;;;;2.60;1.70;;;;;;;19.37;77.95;99455.97;4820168;29;20799;-78
2022/05/17 03:07:57;;;;;;;2.50;1.60;;;;;;;19.28;78.65;99461.19;4820772;29;20209;-76
2022/05/17 03:10:24;;;;;;;2.57;1.53;;;;;;;19.29;78.75;99464.72;4820522;29;20241;-77
2022/05/17 03:12:51;;;;;;;2.30;1.70;;;;;;;19.31;79.07;99463.34;4820476;29;20284;-77
2022/05/17 03:15:22;;;;;;;2.30;1.60;;;;;;;19.58;76.66;99468.38;4820370;29;20245;-76
2022/05/17 03:17:49;;;;;;;3.40;1.60;;;;;;;19.46;76.79;99481.47;4820745;29;20682;-77
2022/05/17 03:20:16;;;;;;;2.40;1.60;;;;;;;19.53;76.19;99473.84;4820490;29;20888;-78
2022/05/17 03:22:43;;;;;;;2.87;1.70;;;;;;;19.41;77.19;99475.25;4820111;29;20233;-78
2022/05/17 03:25:10;;;;;;;3.80;1.57;;;;;;;19.65;75.05;99468.84;4804359;29;20642;-78
2022/05/17 03:27:54;;;;;;;4.03;1.60;;;;;;;19.58;75.74;99473.81;4820145;29;20272;-77
2022/05/17 03:30:20;;;;;;;2.17;1.63;;;;;;;19.56;75.90;99480.59;4820201;29;20217;-77
2022/05/17 03:32:47;;;;;;;3.50;1.50;;;;;;;19.51;77.48;99481.44;4823345;29;20230;-78
2022/05/17 03:35:14;;;;;;;2.57;1.80;;;;;;;19.60;76.89;99481.66;4823975;29;20222;-78
2022/05/17 03:37:41;;;;;;;2.57;1.50;;;;;;;19.39;78.13;99467.38;4807916;29;20190;-78
2022/05/17 03:40:10;;;;;;;2.47;1.60;;;;;;;19.51;76.38;99478.72;4823617;29;20241;-79
2022/05/17 03:42:37;;;;;;;4.13;1.93;;;;;;;19.45;77.77;99484.50;4807817;29;20195;-78
2022/05/17 03:45:05;;;;;;;2.83;1.67;;;;;;;19.29;78.76;99484.53;4807998;29;20194;-78
2022/05/17 03:47:33;;;;;;;2.03;1.50;;;;;;;19.34;77.68;99479.09;4823802;29;20215;-79
2022/05/17 03:49:59;;;;;;;2.97;1.60;;;;;;;19.36;77.53;99495.09;4823726;29;20202;-79
2022/05/17 03:52:28;;;;;;;2.00;1.47;;;;;;;19.40;77.15;99498.06;4823760;29;20190;-79
2022/05/17 03:54:56;;;;;;;1.90;1.57;;;;;;;19.35;76.51;99493.47;4807449;29;20830;-79
2022/05/17 03:57:24;;;;;;;3.57;1.77;;;;;;;19.40;76.54;99503.50;4823945;29;20263;-79
2022/05/17 03:59:51;;;;;;;3.20;1.50;;;;;;;19.43;76.48;99503.75;4823052;29;20194;-78
2022/05/17 04:02:18;;;;;;;3.27;1.73;;;;;;;19.27;77.57;99500.28;4807074;29;20194;-78
2022/05/17 04:04:45;;;;;;;2.83;1.60;;;;;;;19.46;76.20;99502.41;4822986;29;20236;-78
2022/05/17 04:07:12;;;;;;;3.80;1.63;;;;;;;19.45;76.05;99503.50;4823375;29;20694;-77
2022/05/17 04:09:39;;;;;;;2.10;1.67;;;;;;;19.39;77.64;99508.13;4823130;29;20285;-78
2022/05/17 04:12:07;;;;;;;2.00;1.47;;;;;;;19.43;76.74;99505.66;4823263;29;20557;-77
2022/05/17 04:14:34;;;;;;;2.20;1.60;;;;;;;19.43;76.57;99501.03;4823333;29;20232;-78
2022/05/17 04:17:01;;;;;;;2.00;1.40;;;;;;;19.30;77.28;99507.91;4822900;29;20281;-77
2022/05/17 04:19:27;;;;;;;2.37;1.40;;;;;;;19.22;78.23;99505.75;4823109;29;20285;-78
2022/05/17 04:21:54;;;;;;;3.27;1.40;;;;;;;19.12;79.78;99503.09;4823116;29;20237;-77
2022/05/17 04:24:21;;;;;;;1.40;1.30;;;;;;;19.12;80.97;99513.16;4823288;29;20234;-77
2022/05/17 04:26:47;;;;;;;3.53;1.70;;;;;;;19.14;81.76;99519.91;4822987;29;20238;-77
2022/05/17 04:29:14;;;;;;;2.00;1.33;;;;;;;19.11;81.90;99522.38;4822839;29;20224;-78
2022/05/17 04:31:42;;;;;;;2.00;1.60;;;;;;;19.03;82.64;99529.22;4821243;29;20201;-79
2022/05/17 04:34:08;;;;;;;2.03;1.50;;;;;;;19.00;84.00;99528.91;4822900;29;20221;-77
2022/05/17 04:36:35;;;;;;;3.13;1.63;;;;;;;19.02;84.64;99521.31;4821027;29;20289;-78
2022/05/17 04:39:03;;;;;;;2.17;1.30;;;;;;;18.95;86.06;99524.31;4821680;29;20233;-78
2022/05/17 04:41:29;;;;;;;1.90;1.47;;;;;;;18.83;86.79;99524.66;4821858;29;20646;-77
2022/05/17 04:43:56;;;;;;;3.57;1.50;;;;;;;18.87;87.93;99531.16;4821849;29;20231;-79
2022/05/17 04:46:23;;;;;;;2.70;1.60;;;;;;;18.89;88.26;99530.88;4806808;29;20218;-79
2022/05/17 04:48:50;;;;;;;2.23;1.50;;;;;;;18.84;89.07;99529.00;4822906;29;20679;-77
2022/05/17 04:51:17;;;;;;;3.97;1.57;;;;;;;18.74;90.40;99529.00;4822448;29;20280;-78
2022/05/17 04:53:44;;;;;;;2.50;1.50;;;;;;;18.77;90.21;99524.94;4822290;29;20663;-78
2022/05/17 04:56:11;;;;;;;2.07;1.87;;;;;;;18.73;92.45;99535.53;4822545;29;20201;-77
2022/05/17 04:58:39;;;;;;;1.70;1.60;;;;;;;18.57;94.99;99531.19;4822680;29;20194;-78
2022/05/17 05:01:06;;;;;;;3.43;1.80;;;;;;;18.60;96.79;99533.38;4822410;29;20213;-77
2022/05/17 05:03:32;;;;;;;4.03;1.70;;;;;;;18.55;98.33;99535.28;4822388;29;20859;-78
2022/05/17 05:05:59;;;;;;;3.73;1.67;;;;;;;18.46;100.00;99540.44;4822244;29;20190;-78
2022/05/17 05:08:26;;;;;;;2.43;1.60;;;;;;;18.61;100.00;99534.22;4822591;29;20331;-79
2022/05/17 05:10:54;;;;;;;3.07;1.90;;;;;;;18.54;100.00;99534.47;4806373;29;20194;-78
2022/05/17 05:13:23;;;;;;;2.67;1.60;;;;;;;18.43;100.00;99522.78;4822493;29;20256;-78
2022/05/17 05:15:51;;;;;;;2.43;1.80;;;;;;;18.44;100.00;99529.84;4822647;29;20239;-77
2022/05/17 05:18:18;;;;;;;3.33;1.67;;;;;;;18.41;100.00;99532.28;4822424;29;20194;-78
2022/05/17 05:20:45;;;;;;;2.50;1.70;;;;;;;18.35;100.00;99522.53;4821992;29;20214;-78
2022/05/17 05:23:12;;;;;;;3.33;1.87;;;;;;;18.36;100.00;99522.25;4822277;29;20237;-78
2022/05/17 05:25:39;;;;;;;3.23;1.73;;;;;;;18.34;100.00;99527.13;4822134;29;20247;-78
2022/05/17 05:28:08;;;;;;;6.37;1.93;;;;;;;18.37;100.00;99523.91;4822120;29;20214;-78
2022/05/17 05:30:36;;;;;;;3.50;2.03;;;;;;;18.45;100.00;99526.06;4805780;29;20282;-77
2022/05/17 05:33:02;;;;;;;3.63;2.03;;;;;;;18.49;100.00;99527.13;4806303;29;20232;-77
2022/05/17 05:35:29;;;;;;;3.40;1.80;;;;;;;18.60;100.00;99527.97;4821895;29;20218;-78
2022/05/17 05:37:56;;;;;;;4.10;2.03;;;;;;;18.66;100.00;99520.63;4821239;29;20206;-77
2022/05/17 05:40:23;;;;;;;3.87;1.53;;;;;;;18.80;100.00;99527.91;4821850;29;20269;-80
2022/05/17 05:42:51;;;;;;;2.47;1.90;;;;;;;18.79;100.00;99520.06;4821928;29;20745;-77
2022/05/17 05:45:18;;;;;;;3.30;1.87;;;;;;;18.70;100.00;99527.13;4821962;29;20255;-78
2022/05/17 05:47:46;;;;;;;3.60;2.00;;;;;;;18.59;100.00;99529.03;4821847;29;20205;-77
2022/05/17 05:50:13;;;;;;;3.87;1.70;;;;;;;18.65;100.00;99529.84;4821800;29;20929;-78
2022/05/17 05:52:40;;;;;;;3.03;1.70;;;;;;;18.56;100.00;99537.75;4821731;29;20250;-79
2022/05/17 05:55:17;;;;;;;2.40;1.90;;;;;;;18.40;100.00;99530.66;4821584;29;20193;-78
2022/05/17 05:57:46;;;;;;;2.43;1.80;;;;;;;18.43;100.00;99539.06;4821881;29;20174;-79
2022/05/17 06:00:14;;;;;;;4.10;2.17;;;;;;;18.22;100.00;99532.03;4821624;29;20248;-78
2022/05/17 06:02:41;;;;;;;3.73;1.80;;;;;;;18.29;100.00;99531.78;4821625;29;20258;-79
2022/05/17 06:05:08;;;;;;;3.10;1.83;;;;;;;18.36;100.00;99541.25;4821381;29;20198;-78
2022/05/17 06:07:35;;;;;;;4.30;1.97;;;;;;;18.35;100.00;99534.19;4821494;29;20663;-78
2022/05/17 06:10:04;;;;;;;3.10;1.90;;;;;;;18.42;100.00;99532.03;4821556;29;20264;-78
2022/05/17 06:12:31;;;;;;;3.10;2.07;;;;;;;18.50;100.00;99533.38;4821199;29;20266;-80
2022/05/17 06:15:00;;;;;;;2.43;1.90;;;;;;;18.64;100.00;99534.47;4821785;29;20671;-78
2022/05/17 06:17:28;;;;;;;3.20;1.97;;;;;;;18.81;100.00;99521.38;4805572;29;20737;-78
2022/05/17 06:19:56;;;;;;;3.53;2.00;;;;;;;18.93;100.00;99512.94;4821188;29;20220;-78
2022/05/17 06:22:24;;;;;;;2.30;2.10;;;;;;;19.09;100.00;99521.81;4805013;29;20209;-78
2022/05/17 06:24:51;;;;;;;3.90;2.10;;;;;;;19.27;100.00;99530.16;4805084;29;20558;-78
2022/05/17 06:27:22;;;;;;;2.77;1.97;;;;;;;19.61;100.00;99526.75;4791235;29;20205;-78
2022/05/17 06:29:51;;;;;;;2.83;2.20;;;;;;;20.02;100.00;99522.66;4804625;29;20230;-78
2022/05/17 06:32:18;;;;;;;3.63;2.47;;;;;;;20.41;100.00;99519.94;4821237;29;20196;-78
2022/05/17 06:34:47;;;;;;;5.03;2.30;;;;;;;20.63;100.00;99520.25;4820944;29;20280;-78
2022/05/17 06:37:15;;;;;;;3.77;2.30;;;;;;;20.90;95.43;99524.34;4820235;29;20656;-78
2022/05/17 06:39:45;;;;;;;3.63;2.33;;;;;;;21.17;91.41;99527.31;4821082;29;20195;-79
2022/05/17 06:42:12;;;;;;;3.97;2.37;;;;;;;21.22;90.95;99527.25;4819849;29;20277;-79
2022/05/17 06:44:40;;;;;;;3.10;2.33;;;;;;;21.34;88.16;99515.91;4802981;29;20260;-79
2022/05/17 06:47:07;;;;;;;2.77;2.33;;;;;;;21.49;86.73;99515.72;4805902;29;20225;-79
2022/05/17 06:49:39;;;;;;;3.17;2.23;;;;;;;21.65;84.78;99514.38;4820296;29;20313;-79
2022/05/17 06:52:08;;;;;;;6.83;2.73;;;;;;;21.72;82.21;99516.75;4820885;29;20197;-77
2022/05/17 06:54:43;;;;;;;2.90;2.40;;;;;;;21.92;81.63;99519.16;4820776;29;20188;-78
2022/05/17 06:57:13;;;;;;;3.77;2.50;;;;;;;21.90;78.80;99518.66;4820996;29;20181;-77
2022/05/17 06:59:41;;;;;;;3.67;2.23;;;;;;;21.90;78.46;99514.00;4820289;29;20253;-78
2022/05/17 07:02:08;;;;;;;2.50;2.30;;;;;;;21.79;79.97;99525.38;4803936;29;20215;-77
2022/05/17 07:04:36;;;;;;;3.23;2.40;;;;;;;21.81;79.28;99523.16;4820241;29;20192;-78
2022/05/17 07:07:04;;;;;;;3.57;2.00;;;;;;;21.86;78.75;99525.81;4820020;29;20220;-77
2022/05/17 07:09:31;;;;;;;3.10;2.37;;;;;;;22.10;77.13;99528.47;4820373;29;20277;-78
2022/05/17 07:14:50;;;;;;;2.83;2.07;;;;;;;22.06;76.99;99533.72;4820424;29;20189;-77
2022/05/17 07:17:20;;;;;;;2.33;2.13;;;;;;;22.12;77.00;99535.22;4802195;29;20199;-78
2022/05/17 07:19:47;;;;;;;3.17;2.20;;;;;;;22.12;78.74;99531.69;4801993;29;20202;-77
2022/05/17 07:22:14;;;;;;;2.73;2.00;;;;;;;22.19;80.35;99534.88;4785838;29;20214;-78
2022/05/17 07:24:45;;;;;;;4.30;2.07;;;;;;;22.17;79.92;99542.53;4801962;29;20231;-78
2022/05/17 07:27:14;;;;;;;3.93;2.10;;;;;;;22.43;76.50;99537.47;4801895;29;20184;-77
2022/05/17 07:29:46;;;;;;;2.40;2.10;;;;;;;22.71;75.56;99539.97;4801708;29;20202;-77
2022/05/17 07:32:13;;;;;;;2.60;2.07;;;;;;;23.10;72.11;99538.66;4802475;29;20264;-79
2022/05/17 07:34:41;;;;;;;2.77;2.10;;;;;;;23.36;71.08;99537.06;4801916;29;20186;-79
2022/05/17 07:37:08;;;;;;;3.30;2.10;;;;;;;23.60;68.62;99543.13;4801070;29;20271;-78
2022/05/17 07:39:35;;;;;;;2.70;2.47;;;;;;;23.39;67.10;99536.44;4801859;29;20255;-79
2022/05/17 07:42:07;;;;;;;2.33;2.07;;;;;;;23.74;65.92;99526.69;4802123;29;20201;-79
2022/05/17 07:44:36;;;;;;;3.20;2.60;;;;;;;23.70;65.13;99548.34;4800789;29;20184;-79
2022/05/17 07:47:04;;;;;;;3.43;2.40;;;;;;;24.04;63.30;99539.63;4786226;29;20208;-79
2022/05/17 07:49:33;;;;;;;3.42;2.60;;;;;;;24.66;62.88;99537.00;4789702;29;20240;-79
2022/05/17 07:52:01;;;;;;;3.53;2.78;;;;;;;24.74;60.72;99529.94;4803414;29;20218;-78
2022/05/17 07:54:29;;;;;;;3.97;3.15;;;;;;;24.90;58.97;99529.25;4804126;29;20197;-78
2022/05/17 07:56:56;;;;;;;3.40;3.10;;;;;;;24.97;58.71;99534.25;4819728;29;20221;-79
2022/05/17 07:59:23;;;;;;;4.15;3.17;;;;;;;25.19;57.44;99527.91;4804028;29;20698;-78
2022/05/17 08:01:50;;;;;;;4.30;2.75;;;;;;;24.71;58.22;99533.31;4819416;29;20201;-79
2022/05/17 08:04:16;;;;;;;3.17;2.85;;;;;;;24.33;60.43;99525.53;4819912;29;20195;-78
2022/05/17 08:06:44;;;;;;;5.85;3.10;;;;;;;24.24;60.05;99541.09;4820029;29;20253;-78
2022/05/17 08:09:14;;;;;;;3.08;2.78;;;;;;;23.77;62.28;99536.19;4820162;29;20352;-78
2022/05/17 08:11:42;;;;;;;3.42;3.10;;;;;;;23.70;61.78;99537.41;4819885;29;20225;-79
2022/05/17 08:14:09;;;;;;;3.93;2.73;;;;;;;22.98;64.79;99543.84;4820232;29;20221;-78
2022/05/17 08:16:40;;;;;;;5.07;2.87;;;;;;;22.56;67.02;99537.50;4803830;29;20761;-78
2022/05/17 08:19:07;;;;;;;3.57;3.13;;;;;;;21.98;70.09;99539.03;4807390;29;20198;-79
2022/05/17 08:21:33;;;;;;;4.33;2.70;;;;;;;21.61;72.75;99542.53;4806732;29;20784;-78
2022/05/17 08:24:01;;;;;;;4.33;2.70;;;;;;;21.30;75.82;99534.75;4806991;29;20920;-79
2022/05/17 08:29:14;;;;;;;2.87;2.67;;;;;;;21.18;76.86;99541.75;4822573;29;20310;-79
2022/05/17 08:31:40;;;;;;;5.23;2.80;;;;;;;21.16;76.57;99542.03;4822674;29;20231;-78
2022/05/17 08:34:08;;;;;;;3.93;2.60;;;;;;;20.76;78.51;99543.28;4822937;29;20195;-79
2022/05/17 08:36:35;;;;;;;2.90;2.40;;;;;;;20.85;76.87;99530.66;4822789;29;20195;-78
2022/05/17 08:39:03;;;;;;;3.90;2.40;;;;;;;20.98;76.06;99540.84;4823156;29;20284;-78
2022/05/17 08:41:55;;;;;;;3.70;2.30;;;;;;;21.30;73.21;99544.84;4822710;29;20658;-79
2022/05/17 08:44:39;;;;;;;3.90;1.87;;;;;;;21.29;72.21;99544.03;4806755;29;20188;-78
2022/05/17 08:47:11;;;;;;;3.23;2.10;;;;;;;21.59;71.92;99537.38;4807058;29;20264;-78
2022/05/17 08:50:03;;;;;;;2.33;2.10;;;;;;;21.58;69.85;99548.56;4798267;29;20707;-78
2022/05/17 08:52:31;;;;;;;4.50;2.07;;;;;;;21.69;69.80;99542.69;4822556;29;20201;-78
2022/05/17 08:55:10;;;;;;;4.70;2.00;;;;;;;21.79;68.11;99547.19;4820815;29;20194;-79
2022/05/17 08:57:41;;;;;;;3.27;2.00;;;;;;;21.98;67.92;99536.31;4821353;29;20682;-79
2022/05/17 09:00:13;;;;;;;2.87;2.00;;;;;;;22.54;65.04;99542.44;4805379;29;20185;-79
2022/05/17 09:02:50;;;;;;;2.63;2.13;;;;;;;22.78;63.39;99556.78;4821342;29;20181;-79
2022/05/17 09:05:44;;;;;;;3.60;2.30;;;;;;;23.20;60.69;99533.81;4821984;29;20187;-79
2022/05/17 09:08:28;;;;;;;2.30;2.07;;;;;;;23.21;60.05;99534.63;4822729;29;20213;-79
2022/05/17 09:11:27;;;;;;;3.73;2.23;;;;;;;22.80;60.32;99545.56;4806020;29;20189;-79
2022/05/17 09:14:06;;;;;;;4.17;2.57;;;;;;;22.59;61.60;99536.88;4816299;29;20801;-79
2022/05/17 09:16:41;;;;;;;4.77;2.23;;;;;;;22.66;61.20;99536.50;4840688;29;20601;-78
2022/05/17 09:19:08;;;;;;;4.57;2.40;;;;;;;22.26;62.48;99538.00;4824636;29;20188;-78
2022/05/17 09:21:38;;;;;;;4.33;2.23;;;;;;;22.71;61.54;99550.09;4839168;29;20238;-79
2022/05/17 09:24:12;;;;;;;5.67;2.33;;;;;;;22.59;61.43;99539.63;4794331;29;20265;-77
2022/05/17 09:26:41;;;;;;;3.47;2.40;;;;;;;22.53;61.28;99540.84;4803590;29;20187;-78
2022/05/17 09:29:17;;;;;;;3.83;2.60;;;;;;;22.82;60.19;99543.31;4780122;29;20241;-78
2022/05/17 09:31:53;;;;;;;2.80;2.50;;;;;;;22.61;61.36;99537.41;4787696;29;20217;-78
2022/05/17 09:34:33;;;;;;;4.03;2.50;;;;;;;23.10;59.48;99536.75;4803887;29;20279;-78
2022/05/17 09:37:11;;;;;;;3.60;2.60;;;;;;;23.40;58.13;99521.66;4779991;29;20211;-77
2022/05/17 09:39:38;;;;;;;4.77;2.67;;;;;;;23.27;58.44;99539.69;4804493;29;20272;-77
2022/05/17 09:42:07;;;;;;;3.67;3.00;;;;;;;23.30;57.76;99526.50;4821096;29;20284;-78
2022/05/17 09:44:43;;;;;;;4.93;2.90;;;;;;;23.57;56.78;99521.84;4814250;29;20190;-77
2022/05/17 09:47:23;;;;;;;3.80;2.50;;;;;;;23.67;55.77;99518.06;4787436;29;20221;-77
2022/05/17 09:52:38;;;;;;;4.17;2.90;;;;;;;23.54;56.17;99527.94;4805752;29;20190;-77
2022/05/17 09:55:09;;;;;;;5.97;2.77;;;;;;;23.26;57.78;99526.31;4821407;29;20548;-77
2022/05/17 09:57:36;;;;;;;3.17;2.60;;;;;;;23.61;56.55;99522.03;4821133;29;20213;-77
2022/05/17 10:00:12;;;;;;;5.00;2.90;;;;;;;23.53;57.02;99530.97;4821215;29;20247;-78
2022/05/17 10:03:00;;;;;;;3.37;2.77;;;;;;;23.75;56.21;99527.50;4805264;29;20177;-78
2022/05/17 10:05:45;;;;;;;4.03;2.87;;;;;;;24.02;55.72;99533.66;4819994;29;20193;-77
2022/05/17 10:08:15;;;;;;;3.67;2.83;;;;;;;24.05;55.84;99526.75;4820099;29;20220;-78
2022/05/17 10:10:43;;;;;;;4.63;2.70;;;;;;;24.49;53.81;99534.19;4821026;29;20245;-78
2022/05/17 10:13:27;;;;;;;5.07;2.60;;;;;;;24.56;53.68;99535.34;4821185;29;20667;-77
2022/05/17 10:15:59;;;;;;;5.57;2.63;;;;;;;24.20;54.21;99526.41;4803916;29;20284;-78
2022/05/17 10:18:35;;;;;;;5.45;2.80;;;;;;;24.02;55.09;99525.47;4820693;29;20178;-78
2022/05/17 10:21:09;;;;;;;3.33;2.58;;;;;;;23.89;56.10;99523.56;4821478;29;20194;-78
2022/05/17 10:23:38;;;;;;;3.60;2.70;;;;;;;23.95;56.31;99519.59;4812639;29;20268;-78
2022/05/17 10:26:12;;;;;;;5.57;2.70;;;;;;;24.16;55.50;99517.22;4820969;29;20185;-77
2022/05/17 10:28:44;;;;;;;2.83;2.47;;;;;;;24.61;54.35;99517.97;4804766;29;20845;-77
2022/05/17 10:31:31;;;;;;;2.47;2.28;;;;;;;24.93;52.99;99516.84;4804661;29;20220;-78
2022/05/17 10:34:32;;;;;;;4.63;2.30;;;;;;;25.57;51.47;99515.25;4804979;29;20204;-78
2022/05/17 10:37:06;;;;;;;3.35;2.30;;;;;;;25.93;49.47;99514.16;4820619;29;20189;-77
2022/05/17 10:39:51;;;;;;;2.42;1.90;;;;;;;26.06;48.19;99508.47;4804772;29;20191;-78
2022/05/17 10:42:18;;;;;;;3.50;2.15;;;;;;;25.37;49.97;99496.66;4804018;29;20206;-78
2022/05/17 10:44:53;;;;;;;2.42;1.90;;;;;;;24.97;51.25;99515.88;4829965;29;20844;-78
2022/05/17 10:47:49;;;;;;;2.55;1.70;;;;;;;24.71;52.55;99512.22;4822868;29;20193;-77
2022/05/17 10:50:16;;;;;;;2.92;1.73;;;;;;;24.77;52.36;99502.75;4828724;29;20696;-77
2022/05/17 10:53:06;;;;;;;3.70;2.28;;;;;;;24.39;53.45;99512.53;4818312;29;20194;-78
2022/05/17 10:55:36;;;;;;;4.43;2.20;;;;;;;24.02;54.92;99505.50;4820143;29;20215;-77
2022/05/17 10:58:22;;;;;;;3.35;2.08;;;;;;;23.95;55.78;99507.84;4804189;29;20296;-78
2022/05/17 11:00:58;;;;;;;4.03;2.00;;;;;;;24.22;55.39;99510.47;4803631;29;20208;-78
2022/05/17 11:03:32;;;;;;;2.33;2.10;;;;;;;24.63;53.51;99509.44;4803329;29;20174;-78
2022/05/17 11:06:04;;;;;;;3.15;2.20;;;;;;;24.36;54.76;99507.66;4819949;29;20273;-77
2022/05/17 11:08:53;;;;;;;2.22;2.03;;;;;;;23.91;55.88;99515.06;4820019;29;20237;-79
2022/05/17 11:11:25;;;;;;;2.37;2.17;;;;;;;23.93;56.50;99521.03;4804306;29;20777;-77
2022/05/17 11:13:53;;;;;;;2.40;2.10;;;;;;;23.61;57.73;99513.81;4820378;29;20261;-77
2022/05/17 11:16:25;;;;;;;4.20;2.30;;;;;;;23.09;59.34;99513.28;4830712;29;20223;-79
2022/05/17 11:19:24;;;;;;;5.57;2.40;;;;;;;22.77;61.01;99510.63;4822401;29;20289;-77
2022/05/17 11:22:00;;;;;;;4.57;2.60;;;;;;;22.22;63.24;99515.97;4806890;29;20252;-77
2022/05/17 11:24:52;;;;;;;6.63;2.60;;;;;;;22.25;63.89;99511.84;4804139;29;20828;-77
2022/05/17 11:27:40;;;;;;;4.97;2.60;;;;;;;22.58;63.16;99523.56;4820178;29;20276;-77
2022/05/17 11:30:26;;;;;;;4.47;2.47;;;;;;;22.86;61.97;99516.22;4820186;29;20283;-77
2022/05/17 11:33:22;;;;;;;3.23;2.40;;;;;;;22.80;62.28;99507.31;4803735;29;20596;-79
2022/05/17 11:35:58;;;;;;;6.70;2.50;;;;;;;22.86;62.68;99500.66;4820107;29;20172;-78
2022/05/17 11:38:31;;;;;;;6.90;2.10;;;;;;;22.75;62.84;99494.56;4803306;29;20262;-77
2022/05/17 11:41:33;;;;;;;7.83;2.57;;;;;;;22.68;64.25;99506.94;4819809;29;20237;-79
2022/05/17 11:44:04;;;;;;;4.87;2.20;;;;;;;22.57;65.79;99508.28;4815352;29;20244;-77
2022/05/17 11:46:31;;;;;;;5.40;2.30;;;;;;;22.58;67.75;99510.72;4816114;29;20277;-77
2022/05/17 11:49:00;;;;;;;2.60;1.90;;;;;;;22.75;67.46;99510.16;4837463;29;20196;-77
2022/05/17 11:51:35;;;;;;;2.77;2.20;;;;;;;22.97;67.74;99515.72;4803252;29;20212;-77
2022/05/17 11:54:03;;;;;;;2.90;2.23;;;;;;;23.19;65.77;99495.84;4823379;29;20278;-78
2022/05/17 11:56:32;;;;;;;4.77;2.50;;;;;;;23.56;64.95;99512.00;4823393;29;20200;-77